Time;durP1;ratioP1;P1;durP2;ratioP2;P2;SDS_P1;SDS_P2;PMS_P1;PMS_P2;Temp;Humidity;BMP_temperature;BMP_pressure;BME280_temperature;BME280_humidity;BME280_pressure;Samples;Min_cycle;Max_cycle;Signal;HPM_P1;HPM_P2
2023/11/02 00:02:06;;;;;;;15.32;3.30;;;;;;;8.81;100.00;98998.53;5085356;28;20523;-67
2023/11/02 00:04:32;;;;;;;16.75;3.42;;;;;;;8.82;100.00;98989.72;5082373;28;20490;-67
2023/11/02 00:06:57;;;;;;;12.98;3.10;;;;;;;8.79;100.00;98979.25;5082921;28;20075;-67
2023/11/02 00:09:26;;;;;;;15.95;3.42;;;;;;;8.84;100.00;98967.72;5083540;28;20094;-67
2023/11/02 00:11:54;;;;;;;14.48;3.13;;;;;;;8.78;100.00;98946.78;5082574;28;20112;-68
2023/11/02 00:14:20;;;;;;;12.65;3.03;;;;;;;8.82;100.00;98945.78;5083841;28;20016;-68
2023/11/02 00:16:47;;;;;;;12.27;2.92;;;;;;;8.87;100.00;98937.81;5081936;28;20020;-67
2023/11/02 00:19:35;;;;;;;8.90;2.60;;;;;;;8.93;100.00;98924.53;5084674;28;20496;-66
2023/11/02 00:22:08;;;;;;;15.93;3.20;;;;;;;8.90;100.00;98920.19;5082698;28;20089;-66
2023/11/02 00:24:52;;;;;;;14.60;2.90;;;;;;;8.94;100.00;98910.47;5081829;28;20032;-67
2023/11/02 00:27:18;;;;;;;9.88;2.60;;;;;;;8.95;100.00;98906.06;5077735;28;20020;-67
2023/11/02 00:29:43;;;;;;;12.65;2.80;;;;;;;8.94;100.00;98894.66;5084812;28;20062;-67
2023/11/02 00:32:09;;;;;;;13.48;2.78;;;;;;;8.93;100.00;98903.44;5081202;28;20033;-67
2023/11/02 00:34:37;;;;;;;14.00;2.60;;;;;;;8.96;100.00;98879.66;5084071;28;20024;-67
2023/11/02 00:37:03;;;;;;;10.52;2.70;;;;;;;8.97;100.00;98867.34;5081933;28;20029;-67
2023/11/02 00:39:29;;;;;;;15.38;3.10;;;;;;;8.93;100.00;98860.41;5083184;28;20025;-68
2023/11/02 00:41:55;;;;;;;12.50;2.70;;;;;;;8.95;100.00;98854.19;5082922;28;20540;-67
2023/11/02 00:44:23;;;;;;;13.45;2.80;;;;;;;9.01;100.00;98853.22;5082150;28;20040;-67
2023/11/02 00:46:48;;;;;;;12.38;2.63;;;;;;;9.01;100.00;98843.56;5083699;28;20535;-67
2023/11/02 00:49:20;;;;;;;12.20;2.80;;;;;;;9.03;100.00;98841.75;5081067;28;20036;-67
2023/11/02 00:51:55;;;;;;;15.00;3.00;;;;;;;9.05;100.00;98831.16;5084018;28;20485;-67
2023/11/02 00:54:58;;;;;;;12.98;2.67;;;;;;;9.13;100.00;98812.53;5082108;28;20020;-68
2023/11/02 00:57:37;;;;;;;11.70;2.50;;;;;;;9.07;100.00;98814.41;5080210;28;20024;-67
2023/11/02 01:00:03;;;;;;;10.80;2.40;;;;;;;9.03;100.00;98802.22;5081640;28;20064;-67
2023/11/02 01:02:38;;;;;;;13.02;2.47;;;;;;;9.06;100.00;98804.78;5083082;28;20502;-68
2023/11/02 01:05:04;;;;;;;13.25;2.50;;;;;;;9.07;100.00;98790.69;5081481;28;20893;-68
2023/11/02 01:07:31;;;;;;;11.10;2.60;;;;;;;9.06;100.00;98781.06;5082704;28;20553;-66
2023/11/02 01:10:00;;;;;;;13.02;2.70;;;;;;;9.10;100.00;98767.81;5082858;28;20382;-66
2023/11/02 01:12:36;;;;;;;16.17;2.83;;;;;;;9.13;100.00;98752.81;5082497;28;20363;-65
2023/11/02 01:15:05;;;;;;;11.93;2.70;;;;;;;9.13;100.00;98751.91;5081723;28;20131;-66
2023/11/02 01:17:40;;;;;;;11.48;2.38;;;;;;;9.19;100.00;98747.38;5081656;28;20039;-65
2023/11/02 01:20:10;;;;;;;11.20;2.70;;;;;;;9.24;100.00;98736.72;5083784;28;20156;-65
2023/11/02 01:22:52;;;;;;;10.43;2.55;;;;;;;9.26;100.00;98753.34;5087909;28;20020;-65
2023/11/02 01:25:19;;;;;;;13.80;2.63;;;;;;;9.24;100.00;98728.81;5082424;28;20044;-65
2023/11/02 01:27:46;;;;;;;10.85;2.50;;;;;;;9.29;100.00;98716.41;5088033;28;20024;-66
2023/11/02 01:30:17;;;;;;;12.07;2.70;;;;;;;9.31;100.00;98719.00;5084834;28;20082;-65
2023/11/02 01:32:42;;;;;;;13.20;2.60;;;;;;;9.33;100.00;98696.94;5081097;28;20190;-66
2023/11/02 01:35:09;;;;;;;13.48;2.50;;;;;;;9.36;100.00;98685.44;5087744;28;20047;-65
2023/11/02 01:37:35;;;;;;;8.38;2.30;;;;;;;9.33;100.00;98678.47;5084905;28;20489;-65
2023/11/02 01:40:32;;;;;;;12.88;2.63;;;;;;;9.31;100.00;98668.91;5086911;28;20103;-64
2023/11/02 01:42:58;;;;;;;12.55;2.70;;;;;;;9.32;100.00;98653.03;5084646;28;20463;-65
2023/11/02 01:45:28;;;;;;;9.52;2.58;;;;;;;9.31;100.00;98639.91;5086377;28;20032;-65
2023/11/02 01:48:25;;;;;;;12.23;2.50;;;;;;;9.34;100.00;98626.63;5085433;28;20486;-65
2023/11/02 01:51:06;;;;;;;13.70;2.75;;;;;;;9.41;100.00;98600.06;5070214;28;20124;-65
2023/11/02 01:53:53;;;;;;;12.18;2.40;;;;;;;9.35;100.00;98588.78;5085231;28;20024;-65
2023/11/02 01:56:36;;;;;;;12.95;2.60;;;;;;;9.34;100.00;98572.13;5081954;28;20111;-66
2023/11/02 01:59:20;;;;;;;;;;;;;;;9.32;100.00;98555.47;5085403;28;20032;-67
2023/11/02 02:02:19;;;;;;;11.48;2.30;;;;;;;9.30;100.00;98528.28;5080915;28;19912;-66
2023/11/02 02:05:26;;;;;;;10.98;2.38;;;;;;;9.32;100.00;98523.84;5077066;28;20036;-66
2023/11/02 02:08:13;;;;;;;13.45;2.50;;;;;;;9.29;100.00;98497.56;5070197;28;20052;-66
2023/11/02 02:11:02;;;;;;;11.00;2.60;;;;;;;9.33;100.00;98466.69;5084084;28;20089;-66
2023/11/02 02:13:56;;;;;;;15.23;2.63;;;;;;;9.33;100.00;98464.91;5084141;28;20016;-66
2023/11/02 02:16:38;;;;;;;13.70;2.55;;;;;;;9.33;100.00;98449.09;5082092;28;20035;-67
2023/11/02 02:19:18;;;;;;;15.73;2.60;;;;;;;9.32;100.00;98431.56;5084691;28;20135;-67
2023/11/02 02:22:09;;;;;;;15.15;2.47;;;;;;;9.34;100.00;98428.88;5080150;28;20489;-67
2023/11/02 02:24:52;;;;;;;10.35;2.28;;;;;;;9.35;100.00;98405.09;5085656;28;20028;-69
2023/11/02 02:27:59;;;;;;;10.57;2.55;;;;;;;9.37;100.00;98405.06;5081001;28;20064;-67
2023/11/02 02:30:59;;;;;;;13.23;2.58;;;;;;;9.43;100.00;98375.84;5079345;28;20043;-67
2023/11/02 02:33:33;;;;;;;12.05;2.40;;;;;;;9.40;100.00;98363.63;5082953;28;20039;-68
2023/11/02 02:36:10;;;;;;;12.88;2.40;;;;;;;9.43;100.00;98346.84;5085125;28;20020;-68
2023/11/02 02:38:42;;;;;;;12.80;2.45;;;;;;;9.49;100.00;98337.88;5086011;28;20036;-67
2023/11/02 02:41:10;;;;;;;14.70;2.60;;;;;;;9.51;100.00;98331.66;5083366;28;20032;-67
2023/11/02 02:43:38;;;;;;;14.48;2.50;;;;;;;9.52;100.00;98321.97;5086173;28;20031;-67
2023/11/02 02:46:05;;;;;;;13.32;2.40;;;;;;;9.49;100.00;98312.38;5084037;28;20024;-67
2023/11/02 02:48:34;;;;;;;13.15;2.33;;;;;;;9.53;100.00;98297.34;5085454;28;20031;-67
2023/11/02 02:51:03;;;;;;;11.43;2.30;;;;;;;9.60;100.00;98288.31;5084423;28;20335;-67
2023/11/02 02:53:32;;;;;;;14.30;2.50;;;;;;;9.64;100.00;98265.31;5085232;28;20051;-67
2023/11/02 02:56:04;;;;;;;12.77;2.40;;;;;;;9.65;100.00;98254.72;5084642;28;20026;-64
2023/11/02 02:58:33;;;;;;;;;;;;;;;9.68;100.00;98227.38;5085082;28;20058;-64
2023/11/02 03:00:58;;;;;;;14.77;2.55;;;;;;;9.69;100.00;98200.94;5084594;28;19937;-64
2023/11/02 03:03:27;;;;;;;13.23;2.30;;;;;;;9.68;100.00;98180.75;5084233;28;20483;-66
2023/11/02 03:05:54;;;;;;;12.38;2.30;;;;;;;9.67;100.00;98150.03;5084023;28;20429;-65
2023/11/02 03:08:22;;;;;;;11.88;2.30;;;;;;;9.75;100.00;98162.94;5083101;28;20044;-64
2023/11/02 03:10:47;;;;;;;13.35;2.40;;;;;;;9.76;100.00;98170.81;5085908;28;20089;-66
2023/11/02 03:13:16;;;;;;;18.10;2.70;;;;;;;9.81;100.00;98159.22;5082522;28;20032;-64
2023/11/02 03:15:45;;;;;;;11.57;2.30;;;;;;;9.82;100.00;98131.94;5078551;28;20055;-65
2023/11/02 03:18:12;;;;;;;15.43;2.40;;;;;;;9.76;100.00;98090.81;5078614;28;20024;-65
2023/11/02 03:20:41;;;;;;;15.15;2.63;;;;;;;9.75;100.00;98050.34;5085513;28;20372;-64
2023/11/02 03:23:18;;;;;;;14.70;2.60;;;;;;;9.84;100.00;98043.03;5082816;28;20078;-65
2023/11/02 03:25:57;;;;;;;15.85;2.63;;;;;;;9.86;100.00;98078.13;5079192;28;20023;-63
2023/11/02 03:28:38;;;;;;;10.63;2.30;;;;;;;9.97;100.00;98135.81;5081185;28;20475;-64
2023/11/02 03:31:23;;;;;;;11.73;2.40;;;;;;;10.03;100.00;98160.22;5083293;28;20062;-63
2023/11/02 03:34:03;;;;;;;13.82;2.35;;;;;;;10.15;100.00;98171.22;5080079;28;20490;-67
2023/11/02 03:36:55;;;;;;;11.32;2.22;;;;;;;10.12;100.00;98161.66;5083822;28;20102;-66
2023/11/02 03:39:48;;;;;;;12.43;2.23;;;;;;;10.11;100.00;98137.00;5080280;28;20560;-65
2023/11/02 03:42:35;;;;;;;12.85;2.42;;;;;;;10.14;100.00;98114.09;5077530;28;20043;-64
2023/11/02 03:45:10;;;;;;;10.30;2.20;;;;;;;10.12;100.00;98064.00;5082971;28;20031;-65
2023/11/02 03:47:54;;;;;;;14.13;2.30;;;;;;;10.15;100.00;98047.16;5082871;28;20550;-65
2023/11/02 03:50:45;;;;;;;11.52;2.20;;;;;;;10.12;100.00;98048.16;5079934;28;20471;-64
2023/11/02 03:53:47;;;;;;;14.13;2.45;;;;;;;10.08;100.00;98025.41;5077853;28;20032;-65
2023/11/02 03:56:42;;;;;;;16.57;2.63;;;;;;;10.08;100.00;97994.59;5078031;28;20033;-65
2023/11/02 03:59:23;;;;;;;13.63;2.28;;;;;;;10.03;100.00;97971.94;5084433;28;20028;-64
2023/11/02 04:02:04;;;;;;;13.55;2.40;;;;;;;9.99;100.00;97922.84;5079209;28;20028;-66
2023/11/02 04:04:40;;;;;;;11.50;2.28;;;;;;;9.98;100.00;97865.72;5083130;28;20028;-65
2023/11/02 04:07:32;;;;;;;11.85;2.40;;;;;;;9.97;100.00;97883.31;5084181;28;20024;-64
2023/11/02 04:10:08;;;;;;;12.13;2.22;;;;;;;9.98;100.00;97886.84;5070095;28;20041;-65
2023/11/02 04:12:55;;;;;;;9.57;2.03;;;;;;;9.98;100.00;97894.75;5082436;28;20094;-65
2023/11/02 04:15:20;;;;;;;13.70;2.33;;;;;;;9.97;100.00;97899.16;5079280;28;20033;-66
2023/11/02 04:17:46;;;;;;;12.65;2.30;;;;;;;10.00;100.00;97921.91;5084926;28;20036;-64
2023/11/02 04:20:11;;;;;;;7.75;2.05;;;;;;;10.09;100.00;97919.78;5081487;28;20047;-66
2023/11/02 04:22:38;;;;;;;10.52;2.10;;;;;;;10.10;100.00;97903.00;5084090;28;20035;-66
2023/11/02 04:25:04;;;;;;;11.25;2.28;;;;;;;10.08;100.00;97872.34;5082662;28;20020;-64
2023/11/02 04:27:29;;;;;;;11.48;2.42;;;;;;;10.06;100.00;97848.66;5083032;28;20497;-66
2023/11/02 04:29:55;;;;;;;7.57;2.00;;;;;;;10.06;100.00;97842.50;5083292;28;20039;-64
2023/11/02 04:32:20;;;;;;;14.68;2.35;;;;;;;10.00;100.00;97822.50;5081965;28;20131;-65
2023/11/02 04:34:46;;;;;;;8.65;2.00;;;;;;;10.00;100.00;97819.84;5084541;28;20467;-66
2023/11/02 04:37:16;;;;;;;9.75;2.10;;;;;;;9.92;100.00;97814.03;5077156;28;20441;-65
2023/11/02 04:39:45;;;;;;;9.93;2.20;;;;;;;9.91;100.00;97813.16;5077235;28;20094;-65
2023/11/02 04:42:11;;;;;;;7.95;2.20;;;;;;;9.92;100.00;97790.31;5084393;28;20132;-63
2023/11/02 04:44:37;;;;;;;8.75;2.08;;;;;;;9.88;100.00;97773.72;5081815;28;20028;-64
2023/11/02 04:47:03;;;;;;;9.25;2.15;;;;;;;9.91;100.00;97788.56;5083425;28;20025;-66
2023/11/02 04:49:29;;;;;;;12.57;2.15;;;;;;;9.93;100.00;97789.34;5082663;28;20050;-65
2023/11/02 04:52:02;;;;;;;12.93;2.30;;;;;;;9.97;100.00;97785.66;5081917;28;20029;-65
2023/11/02 04:54:29;;;;;;;8.35;2.00;;;;;;;9.98;100.00;97763.66;5082748;28;20131;-65
2023/11/02 04:56:55;;;;;;;11.65;2.13;;;;;;;10.01;100.00;97755.59;5081937;28;20028;-64
2023/11/02 04:59:20;;;;;;;8.18;2.15;;;;;;;10.03;100.00;97747.63;5083639;28;20036;-65
2023/11/02 05:01:47;;;;;;;7.50;2.10;;;;;;;10.05;100.00;97719.41;5081099;28;20103;-65
2023/11/02 05:04:12;;;;;;;9.50;2.08;;;;;;;10.08;100.00;97741.22;5076826;28;20044;-64
2023/11/02 05:06:38;;;;;;;6.22;1.98;;;;;;;10.11;100.00;97719.97;5083532;28;20450;-64
2023/11/02 05:09:04;;;;;;;8.95;2.10;;;;;;;10.19;100.00;97734.63;5081715;28;20052;-65
2023/11/02 05:11:29;;;;;;;7.32;2.05;;;;;;;10.19;100.00;97740.75;5082575;28;20024;-65
2023/11/02 05:13:54;;;;;;;8.25;2.10;;;;;;;10.21;100.00;97746.00;5082904;28;20054;-65
2023/11/02 05:16:20;;;;;;;8.45;2.08;;;;;;;10.18;100.00;97717.06;5081351;28;20036;-65
2023/11/02 05:18:45;;;;;;;8.02;2.00;;;;;;;10.19;100.00;97708.22;5084075;28;20085;-65
2023/11/02 05:21:11;;;;;;;9.13;1.98;;;;;;;10.18;100.00;97704.72;5081208;28;20024;-65
2023/11/02 05:23:36;;;;;;;8.93;2.10;;;;;;;10.23;100.00;97709.81;5083237;28;20519;-63
2023/11/02 05:26:02;;;;;;;5.47;2.00;;;;;;;10.19;100.00;97709.06;5082127;28;20406;-66
2023/11/02 05:28:27;;;;;;;7.75;2.10;;;;;;;10.19;100.00;97700.31;5082290;28;20021;-66
2023/11/02 05:30:53;;;;;;;7.93;2.10;;;;;;;10.24;100.00;97688.63;5083076;28;20036;-66
2023/11/02 05:33:18;;;;;;;7.97;2.20;;;;;;;10.26;100.00;97676.19;5080883;28;20029;-65
2023/11/02 05:35:44;;;;;;;6.93;2.00;;;;;;;10.21;100.00;97674.72;5084232;28;20024;-66
2023/11/02 05:38:09;;;;;;;8.60;2.00;;;;;;;9.94;100.00;97670.56;5080535;28;20025;-66
2023/11/02 05:40:34;;;;;;;5.75;2.10;;;;;;;9.89;100.00;97662.00;5082986;28;20507;-66
2023/11/02 05:43:00;;;;;;;6.47;2.00;;;;;;;9.90;100.00;97647.00;5082205;28;20071;-66
2023/11/02 05:45:25;;;;;;;9.00;2.10;;;;;;;9.83;100.00;97653.47;5081630;28;20075;-66
2023/11/02 05:47:50;;;;;;;6.70;2.25;;;;;;;9.40;100.00;97648.25;5083539;28;20470;-67
2023/11/02 05:50:17;;;;;;;9.07;2.13;;;;;;;9.13;100.00;97631.78;5080639;28;20499;-66
2023/11/02 05:52:43;;;;;;;9.77;2.35;;;;;;;8.94;100.00;97651.00;5076352;28;20040;-63
2023/11/02 05:55:08;;;;;;;9.20;2.13;;;;;;;8.83;100.00;97648.78;5083581;28;20085;-64
2023/11/02 05:57:34;;;;;;;11.50;2.15;;;;;;;8.72;100.00;97646.56;5081256;28;20028;-63
2023/11/02 05:59:59;;;;;;;5.68;2.20;;;;;;;8.61;100.00;97651.38;5081865;28;20033;-64
2023/11/02 06:02:25;;;;;;;6.05;2.20;;;;;;;8.59;100.00;97645.34;5082819;28;20057;-63
2023/11/02 06:04:51;;;;;;;5.90;2.20;;;;;;;8.61;100.00;97632.97;5081235;28;20044;-65
2023/11/02 06:07:16;;;;;;;9.57;2.30;;;;;;;8.59;100.00;97645.34;5087031;28;20546;-65
2023/11/02 06:09:44;;;;;;;6.97;2.20;;;;;;;8.60;100.00;97652.28;5083959;28;20589;-65
2023/11/02 06:12:10;;;;;;;9.93;2.50;;;;;;;8.59;100.00;97661.13;5087111;28;20378;-65
2023/11/02 06:14:36;;;;;;;7.53;2.28;;;;;;;8.64;100.00;97653.91;5084445;28;20030;-65
2023/11/02 06:17:02;;;;;;;7.18;2.30;;;;;;;8.65;100.00;97634.56;5085942;28;20033;-65
2023/11/02 06:19:28;;;;;;;9.68;2.40;;;;;;;8.66;100.00;97636.25;5085349;28;20040;-65
2023/11/02 06:21:53;;;;;;;10.18;2.40;;;;;;;8.65;100.00;97650.34;5084474;28;20044;-65
2023/11/02 06:24:18;;;;;;;12.27;2.40;;;;;;;8.68;100.00;97644.13;5086969;28;20091;-64
2023/11/02 06:26:44;;;;;;;10.13;2.42;;;;;;;8.71;100.00;97639.56;5083399;28;20040;-65
2023/11/02 06:59:14;;;;;;;10.93;2.47;;;;;;;8.97;100.00;97516.50;5089769;27;20388;-63
2023/11/02 08:30:54;;;;;;;16.58;2.60;;;;;;;12.52;100.00;97331.41;5078119;27;1306667;-71
2023/11/02 08:33:19;;;;;;;12.98;2.40;;;;;;;12.59;100.00;97316.03;5092104;28;20036;-71
2023/11/02 08:35:45;;;;;;;10.40;2.30;;;;;;;12.58;100.00;97335.50;5110177;28;20107;-72
2023/11/02 08:38:11;;;;;;;14.25;2.30;;;;;;;12.58;100.00;97316.97;5110128;28;20055;-72
2023/11/02 08:40:36;;;;;;;9.60;2.00;;;;;;;12.53;100.00;97381.66;5110079;28;20032;-72
2023/11/02 08:43:03;;;;;;;10.73;2.28;;;;;;;12.47;100.00;97315.81;5110099;28;20032;-72
2023/11/02 08:45:28;;;;;;;12.15;2.42;;;;;;;12.47;100.00;97321.09;5110337;28;20389;-72
2023/11/02 08:47:53;;;;;;;12.90;2.40;;;;;;;12.44;100.00;97294.78;5091655;28;20023;-72
2023/11/02 08:50:19;;;;;;;11.82;2.38;;;;;;;12.47;100.00;97310.50;5091874;28;20043;-72
2023/11/02 08:52:44;;;;;;;9.30;2.28;;;;;;;12.41;100.00;97300.28;5109996;28;20522;-72
2023/11/02 08:55:10;;;;;;;11.88;2.38;;;;;;;12.46;100.00;97313.25;5109942;28;20032;-72
2023/11/02 08:57:35;;;;;;;12.13;2.22;;;;;;;12.51;100.00;97305.91;5109961;28;20042;-72
2023/11/02 09:00:01;;;;;;;11.32;2.20;;;;;;;12.58;100.00;97285.16;5109690;28;20122;-71
2023/11/02 09:02:26;;;;;;;13.60;2.47;;;;;;;12.63;100.00;97285.75;5109682;28;20102;-71
2023/11/02 09:04:53;;;;;;;13.00;2.30;;;;;;;12.72;100.00;97298.44;5109893;28;20106;-72
2023/11/02 09:07:19;;;;;;;11.07;2.00;;;;;;;12.82;100.00;97275.72;5109591;28;20520;-71
2023/11/02 09:09:44;;;;;;;13.38;2.50;;;;;;;13.03;100.00;97262.97;5091317;28;20044;-72
2023/11/02 09:12:10;;;;;;;11.65;2.25;;;;;;;13.32;100.00;97285.94;5109625;28;20088;-72
2023/11/02 09:14:36;;;;;;;13.52;2.25;;;;;;;13.70;100.00;97288.84;5109399;28;20071;-72
2023/11/02 09:17:01;;;;;;;13.85;2.42;;;;;;;14.07;100.00;97253.69;5109427;28;20028;-72
2023/11/02 09:19:26;;;;;;;11.32;2.13;;;;;;;14.29;100.00;97216.75;5109483;28;20064;-72
2023/11/02 09:21:52;;;;;;;10.50;1.90;;;;;;;14.34;100.00;97234.19;5091189;28;20046;-72
2023/11/02 09:24:17;;;;;;;12.10;2.30;;;;;;;14.46;100.00;97257.28;5090853;28;20032;-71
2023/11/02 09:26:43;;;;;;;8.50;2.10;;;;;;;14.66;100.00;97263.03;5109375;28;20144;-72
2023/11/02 09:29:09;;;;;;;14.75;2.40;;;;;;;14.79;100.00;97242.63;5086540;28;20677;-71
2023/11/02 09:31:34;;;;;;;11.48;2.30;;;;;;;15.00;100.00;97237.63;5087996;28;20577;-71
2023/11/02 09:34:00;;;;;;;10.50;2.35;;;;;;;15.30;100.00;97278.94;5083845;28;20056;-71
2023/11/02 09:36:26;;;;;;;8.45;2.10;;;;;;;15.37;100.00;97228.81;5083582;28;20024;-69
2023/11/02 09:38:51;;;;;;;14.13;2.50;;;;;;;15.48;100.00;97247.50;5068623;28;20039;-71
2023/11/02 09:41:17;;;;;;;8.85;2.10;;;;;;;15.60;100.00;97246.59;5084437;28;20020;-71
2023/11/02 09:43:43;;;;;;;10.90;2.35;;;;;;;15.66;100.00;97243.47;5085199;28;20516;-71
2023/11/02 09:46:09;;;;;;;11.98;2.20;;;;;;;15.65;100.00;97246.25;5086060;28;20051;-71
2023/11/02 09:48:34;;;;;;;12.20;2.15;;;;;;;15.83;100.00;97270.72;5083969;28;20028;-68
2023/11/02 09:50:59;;;;;;;14.90;2.50;;;;;;;16.00;100.00;97265.00;5086901;28;20111;-68
2023/11/02 09:53:26;;;;;;;16.50;2.40;;;;;;;16.01;100.00;97266.69;5083549;28;20037;-69
2023/11/02 09:55:52;;;;;;;12.88;2.28;;;;;;;16.02;100.00;97265.72;5086452;28;20028;-71
2023/11/02 09:58:19;;;;;;;12.98;2.30;;;;;;;15.95;100.00;97309.75;5084177;28;20039;-71
2023/11/02 10:00:46;;;;;;;10.57;2.10;;;;;;;15.80;100.00;97302.88;5067318;28;20512;-71
2023/11/02 10:03:11;;;;;;;10.15;2.20;;;;;;;15.32;100.00;97226.47;5085078;28;20051;-70
2023/11/02 10:05:37;;;;;;;11.02;2.10;;;;;;;15.22;100.00;97257.34;5084044;28;20021;-69
2023/11/02 10:08:02;;;;;;;12.93;2.20;;;;;;;15.31;100.00;97251.38;5086428;28;20127;-71
2023/11/02 10:10:31;;;;;;;11.73;2.25;;;;;;;15.57;100.00;97302.72;5065057;28;20108;-71
2023/11/02 10:12:57;;;;;;;16.42;2.50;;;;;;;15.15;100.00;97233.00;5082913;28;20020;-71
2023/11/02 10:15:22;;;;;;;28.38;4.15;;;;;;;15.04;100.00;97233.75;5086143;28;20032;-71
2023/11/02 10:17:48;;;;;;;17.60;2.28;;;;;;;14.91;100.00;97212.53;5083807;28;20024;-71
2023/11/02 10:20:15;;;;;;;13.85;2.33;;;;;;;14.82;100.00;97245.94;5084588;28;20032;-71
2023/11/02 10:22:43;;;;;;;9.52;2.30;;;;;;;14.73;100.00;97273.13;5085246;28;20020;-70
2023/11/02 10:25:13;;;;;;;16.40;2.20;;;;;;;15.03;100.00;97218.78;5083747;28;20082;-68
2023/11/02 10:27:41;;;;;;;14.50;2.45;;;;;;;15.15;100.00;97241.00;5085130;28;20028;-71
2023/11/02 10:30:07;;;;;;;14.55;2.20;;;;;;;15.05;100.00;97240.78;5083307;28;20044;-68
2023/11/02 10:32:32;;;;;;;10.30;2.10;;;;;;;15.22;100.00;97167.75;5085868;28;20039;-68
2023/11/02 10:34:59;;;;;;;13.00;2.40;;;;;;;15.34;100.00;97225.38;5082808;28;20029;-70
2023/11/02 10:37:31;;;;;;;14.00;2.50;;;;;;;15.30;100.00;97223.06;5086029;28;20272;-71
2023/11/02 10:39:58;;;;;;;16.58;2.55;;;;;;;15.18;100.00;97263.88;5082224;28;20478;-70
2023/11/02 10:42:27;;;;;;;13.93;2.50;;;;;;;15.57;100.00;97206.91;5084601;28;20069;-72
2023/11/02 10:44:53;;;;;;;17.55;2.63;;;;;;;15.54;100.00;97265.69;5082919;28;20035;-72
2023/11/02 10:47:19;;;;;;;16.25;2.60;;;;;;;15.53;100.00;97213.41;5084968;28;20032;-70
2023/11/02 10:49:48;;;;;;;13.65;2.40;;;;;;;16.17;100.00;97225.59;5083635;28;20036;-71
2023/11/02 10:52:21;;;;;;;16.98;2.63;;;;;;;16.25;100.00;97203.69;5084068;28;20465;-70
2023/11/02 10:54:54;;;;;;;15.45;2.40;;;;;;;15.90;100.00;97210.72;5083446;28;20382;-72
2023/11/02 10:57:22;;;;;;;15.80;2.45;;;;;;;15.98;100.00;97226.97;5066651;28;20541;-72
2023/11/02 10:59:48;;;;;;;15.80;2.42;;;;;;;16.22;100.00;97220.75;5082928;28;20088;-72
2023/11/02 11:02:15;;;;;;;11.02;2.20;;;;;;;16.42;100.00;97194.38;5083936;28;20111;-72
2023/11/02 11:04:42;;;;;;;13.32;2.40;;;;;;;16.54;100.00;97188.09;5084161;28;20032;-70
2023/11/02 11:07:09;;;;;;;14.50;2.42;;;;;;;16.12;100.00;97188.63;5082910;28;20119;-70
2023/11/02 11:09:40;;;;;;;10.68;2.22;;;;;;;16.68;100.00;97197.69;5084886;28;20031;-70
2023/11/02 11:12:06;;;;;;;17.13;2.70;;;;;;;16.52;100.00;97169.56;5064501;28;20031;-72
2023/11/02 11:14:31;;;;;;;11.75;2.17;;;;;;;15.98;100.00;97202.16;5085264;28;20036;-72
2023/11/02 11:16:59;;;;;;;14.30;2.30;;;;;;;15.79;100.00;97186.72;5081949;28;20033;-72
2023/11/02 11:19:29;;;;;;;14.27;2.63;;;;;;;15.58;100.00;97186.44;5084996;28;20075;-72
2023/11/02 11:21:56;;;;;;;16.63;2.60;;;;;;;14.99;100.00;97182.72;5081752;28;20114;-72
2023/11/02 11:24:29;;;;;;;13.10;2.20;;;;;;;14.59;100.00;97194.34;5084343;28;20367;-71
2023/11/02 11:26:56;;;;;;;17.35;2.70;;;;;;;13.39;100.00;97199.75;5081965;28;20028;-72
2023/11/02 11:29:41;;;;;;;16.58;2.60;;;;;;;12.93;100.00;97214.13;5084071;28;20081;-71
2023/11/02 11:32:24;;;;;;;11.50;2.17;;;;;;;12.10;100.00;97287.97;5082230;28;20383;-72
2023/11/02 11:35:04;;;;;;;16.88;2.70;;;;;;;11.62;100.00;97228.03;5082338;28;20119;-71
2023/11/02 11:37:34;;;;;;;14.65;2.60;;;;;;;11.52;100.00;97193.31;5081389;28;20032;-71
2023/11/02 11:40:03;;;;;;;12.05;2.50;;;;;;;11.62;100.00;97190.13;5081307;28;20036;-71
2023/11/02 11:42:50;;;;;;;14.43;2.55;;;;;;;12.86;100.00;97181.00;5081733;28;20035;-73
2023/11/02 11:45:33;;;;;;;17.00;2.65;;;;;;;13.63;100.00;97188.47;5083323;28;20036;-72
2023/11/02 11:47:59;;;;;;;14.45;2.60;;;;;;;14.54;100.00;97135.34;5081257;28;20483;-73
2023/11/02 11:50:31;;;;;;;13.13;2.42;;;;;;;15.19;100.00;97199.03;5084397;28;20074;-73
2023/11/02 11:53:20;;;;;;;15.93;2.70;;;;;;;15.56;100.00;97244.28;5081162;28;20040;-73
2023/11/02 11:55:48;;;;;;;10.05;2.00;;;;;;;15.87;100.00;97168.31;5082995;28;20090;-73
2023/11/02 11:58:14;;;;;;;14.02;2.40;;;;;;;15.67;100.00;97175.97;5064638;28;20024;-71
2023/11/02 12:00:50;;;;;;;14.93;2.50;;;;;;;16.19;100.00;97157.03;5082362;28;20387;-73
2023/11/02 12:03:39;;;;;;;13.60;2.40;;;;;;;16.70;100.00;97167.28;5082530;28;20024;-73
2023/11/02 12:06:05;;;;;;;14.70;2.20;;;;;;;16.77;100.00;97145.44;5070418;28;20124;-71
2023/11/02 12:08:31;;;;;;;14.80;2.50;;;;;;;17.24;100.00;97138.13;5084431;28;20031;-71
2023/11/02 12:10:58;;;;;;;14.43;2.28;;;;;;;17.35;100.00;97167.47;5081038;28;20036;-73
2023/11/02 12:13:25;;;;;;;13.82;2.30;;;;;;;16.72;100.00;97176.00;5083958;28;20024;-72
2023/11/02 12:15:53;;;;;;;15.32;2.70;;;;;;;16.64;100.00;97141.06;5081641;28;20040;-70
2023/11/02 12:18:23;;;;;;;14.18;2.63;;;;;;;16.87;100.00;97151.75;5083252;28;20070;-70
2023/11/02 12:20:49;;;;;;;13.95;2.30;;;;;;;16.27;100.00;97143.97;5081859;28;20048;-71
2023/11/02 12:23:14;;;;;;;12.68;2.20;;;;;;;16.29;100.00;97088.72;5064599;28;20119;-68
2023/11/02 12:25:40;;;;;;;20.55;2.78;;;;;;;15.95;100.00;97123.31;5083401;28;20505;-68
2023/11/02 12:28:12;;;;;;;17.80;2.65;;;;;;;15.73;100.00;97156.03;5081441;28;20052;-68
2023/11/02 12:30:42;;;;;;;15.52;2.70;;;;;;;15.29;100.00;97187.63;5065074;28;20059;-68
2023/11/02 12:33:07;;;;;;;12.93;2.40;;;;;;;15.15;100.00;97150.53;5063704;28;20047;-71
2023/11/02 12:35:33;;;;;;;13.82;2.58;;;;;;;15.12;100.00;97142.78;5083948;28;20462;-70
2023/11/02 12:38:00;;;;;;;16.30;2.42;;;;;;;15.56;100.00;97146.63;5080606;28;20036;-70
2023/11/02 12:40:26;;;;;;;17.15;2.42;;;;;;;15.29;100.00;97152.19;5065683;28;20502;-73
2023/11/02 12:42:51;;;;;;;12.18;2.25;;;;;;;15.27;100.00;97107.06;5081543;28;20457;-71
2023/11/02 12:45:23;;;;;;;13.02;2.30;;;;;;;15.22;100.00;97109.25;5082686;28;20029;-69
2023/11/02 12:47:49;;;;;;;12.32;2.22;;;;;;;15.46;100.00;97172.25;5080595;28;20363;-68
2023/11/02 12:50:30;;;;;;;13.15;2.70;;;;;;;15.89;100.00;97125.59;5080751;28;20039;-68
2023/11/02 12:52:56;;;;;;;14.82;2.28;;;;;;;16.04;100.00;97167.06;5083910;28;20378;-67
2023/11/02 12:55:25;;;;;;;13.43;2.40;;;;;;;15.46;100.00;97182.88;5081266;28;20032;-68
2023/11/02 12:57:50;;;;;;;11.07;2.38;;;;;;;15.21;100.00;97123.50;5083083;28;20433;-68
2023/11/02 13:00:18;;;;;;;13.68;2.42;;;;;;;15.32;100.00;97072.16;5081996;28;20089;-68
2023/11/02 13:02:44;;;;;;;10.35;2.28;;;;;;;15.12;100.00;97145.44;5081939;28;20029;-68
2023/11/02 13:05:10;;;;;;;11.45;2.20;;;;;;;15.07;100.00;97142.25;5078143;28;20484;-68
2023/11/02 13:07:36;;;;;;;11.70;2.30;;;;;;;15.03;100.00;97125.69;5086234;28;20067;-68
2023/11/02 13:10:09;;;;;;;18.65;2.65;;;;;;;14.86;100.00;97129.56;5086674;28;20382;-68
2023/11/02 13:12:36;;;;;;;12.07;2.30;;;;;;;14.58;100.00;97107.59;5084120;28;20063;-71
2023/11/02 13:15:08;;;;;;;13.60;2.45;;;;;;;14.26;100.00;97187.75;5085734;28;20028;-70
2023/11/02 13:17:33;;;;;;;14.43;2.72;;;;;;;14.26;100.00;97117.84;5085525;28;20398;-71
2023/11/02 13:19:58;;;;;;;16.85;2.53;;;;;;;14.00;100.00;97132.91;5066980;28;20037;-79
2023/11/02 13:22:25;;;;;;;20.17;5.40;;;;;;;13.85;100.00;97154.25;5083990;28;20067;-74
2023/11/02 13:24:51;;;;;;;13.15;2.35;;;;;;;13.28;100.00;97089.03;5086935;28;20369;-69
2023/11/02 13:27:16;;;;;;;10.93;2.25;;;;;;;13.17;100.00;97179.03;5083719;28;20107;-70
2023/11/02 13:29:43;;;;;;;16.13;2.45;;;;;;;13.28;100.00;97146.50;5086154;28;20411;-70
2023/11/02 13:32:08;;;;;;;22.88;4.22;;;;;;;12.54;100.00;97144.94;5084340;28;20376;-72
2023/11/02 13:34:34;;;;;;;13.45;2.60;;;;;;;12.47;100.00;97126.91;5053516;28;20035;-70
2023/11/02 13:36:59;;;;;;;20.65;3.28;;;;;;;12.61;100.00;97129.53;5085893;28;20051;-69